createdAt,value
2018-09-16T00:01:00.812Z,1021.54
2018-09-16T00:02:00.614Z,1021.56
2018-09-16T00:03:53.766Z,1021.53
2018-09-16T00:04:53.568Z,1021.50
2018-09-16T00:06:46.725Z,1021.47
2018-09-16T00:07:46.523Z,1021.45
2018-09-16T00:09:39.520Z,1021.45
2018-09-16T00:10:39.475Z,1021.47
2018-09-16T00:12:32.636Z,1021.41
2018-09-16T00:13:32.438Z,1021.36
2018-09-16T00:15:25.424Z,1021.34
2018-09-16T00:16:25.572Z,1021.34
2018-09-16T00:18:18.548Z,1021.33
2018-09-16T00:19:18.344Z,1021.31
2018-09-16T00:21:11.503Z,1021.32
2018-09-16T00:22:11.299Z,1021.30
2018-09-16T00:24:04.967Z,1021.27
2018-09-16T00:25:04.766Z,1021.28
2018-09-16T00:26:57.922Z,1021.29
2018-09-16T00:27:57.722Z,1021.28
2018-09-16T00:29:50.773Z,1021.27
2018-09-16T00:30:50.677Z,1021.27
2018-09-16T00:32:43.732Z,1021.23
2018-09-16T00:33:43.637Z,1021.27
2018-09-16T00:35:36.688Z,1021.21
2018-09-16T00:36:36.597Z,1021.21
2018-09-16T00:38:29.543Z,1021.23
2018-09-16T00:39:29.439Z,1021.16
2018-09-16T00:41:22.392Z,1021.18
2018-09-16T00:42:22.301Z,1021.18
2018-09-16T00:44:15.248Z,1021.16
2018-09-16T00:45:15.152Z,1021.15
2018-09-16T00:47:08.099Z,1021.15
2018-09-16T00:48:08.003Z,1021.15
2018-09-16T00:50:00.930Z,1021.15
2018-09-16T00:51:00.856Z,1021.12
2018-09-16T00:52:53.809Z,1021.08
2018-09-16T00:53:53.711Z,1021.09
2018-09-16T00:55:46.659Z,1021.07
2018-09-16T00:56:46.568Z,1021.03
2018-09-16T00:58:39.517Z,1021.02
2018-09-16T00:59:39.419Z,1021.04
2018-09-16T01:01:32.468Z,1021.00
2018-09-16T01:02:32.367Z,1021.00
2018-09-16T01:04:25.320Z,1020.95
2018-09-16T01:05:25.230Z,1020.92
2018-09-16T01:07:18.276Z,1020.92
2018-09-16T01:08:18.177Z,1020.93
2018-09-16T01:10:11.230Z,1020.94
2018-09-16T01:11:11.136Z,1020.95
2018-09-16T01:13:04.187Z,1020.91
2018-09-16T01:14:04.092Z,1020.88
2018-09-16T01:15:57.144Z,1020.88
2018-09-16T01:16:57.046Z,1020.87
2018-09-16T01:18:50.097Z,1020.86
2018-09-16T01:19:50.000Z,1020.81
2018-09-16T01:21:43.055Z,1020.76
2018-09-16T01:22:42.919Z,1020.76
2018-09-16T01:24:36.016Z,1020.75
2018-09-16T01:25:35.810Z,1020.74
2018-09-16T01:27:28.863Z,1020.76
2018-09-16T01:28:28.764Z,1020.76
2018-09-16T01:30:21.921Z,1020.75
2018-09-16T01:31:21.718Z,1020.74
2018-09-16T01:33:14.875Z,1020.73
2018-09-16T01:34:14.682Z,1020.72
2018-09-16T01:36:07.837Z,1020.77
2018-09-16T01:37:07.637Z,1020.69
2018-09-16T01:39:00.784Z,1020.63
2018-09-16T01:40:00.595Z,1020.58
2018-09-16T01:41:53.579Z,1020.56
2018-09-16T01:42:53.625Z,1020.57
2018-09-16T01:44:46.695Z,1020.55
2018-09-16T01:45:46.496Z,1020.57
2018-09-16T01:47:39.655Z,1020.55
2018-09-16T01:48:39.455Z,1020.56
2018-09-16T01:50:32.607Z,1020.57
2018-09-16T01:51:32.407Z,1020.60
2018-09-16T01:53:25.572Z,1020.58
2018-09-16T01:54:25.365Z,1020.56
2018-09-16T01:56:18.519Z,1020.53
2018-09-16T01:57:18.319Z,1020.51
2018-09-16T01:59:11.485Z,1020.46
2018-09-16T02:00:11.274Z,1020.46
2018-09-16T02:02:04.431Z,1020.37
2018-09-16T02:03:04.235Z,1020.37
2018-09-16T02:04:57.386Z,1020.37
2018-09-16T02:05:57.185Z,1020.37
2018-09-16T02:07:50.343Z,1020.41
2018-09-16T02:08:50.142Z,1020.40
2018-09-16T02:10:43.129Z,1020.43
2018-09-16T02:11:43.095Z,1020.47
2018-09-16T02:13:36.253Z,1020.44
2018-09-16T02:14:36.051Z,1020.44
2018-09-16T02:16:29.046Z,1020.44
2018-09-16T02:17:29.007Z,1020.41
2018-09-16T02:19:22.164Z,1020.37
2018-09-16T02:20:21.964Z,1020.36
2018-09-16T02:22:15.123Z,1020.33
2018-09-16T02:23:14.918Z,1020.31
2018-09-16T02:25:07.976Z,1020.36
2018-09-16T02:26:07.876Z,1020.34
2018-09-16T02:28:01.034Z,1020.36
2018-09-16T02:29:00.832Z,1020.35
2018-09-16T02:30:53.987Z,1020.34
2018-09-16T02:31:53.797Z,1020.35
2018-09-16T02:33:46.841Z,1020.35
2018-09-16T02:34:46.743Z,1020.31
2018-09-16T02:36:39.796Z,1020.32
2018-09-16T02:37:39.697Z,1020.28
2018-09-16T02:39:32.759Z,1020.25
2018-09-16T02:40:32.656Z,1020.23
2018-09-16T02:42:25.606Z,1020.26
2018-09-16T02:43:25.521Z,1020.23
2018-09-16T02:45:18.461Z,1020.22
2018-09-16T02:46:18.367Z,1020.19
2018-09-16T02:48:11.315Z,1020.18
2018-09-16T02:49:11.221Z,1020.20
2018-09-16T02:51:04.172Z,1020.21
2018-09-16T02:52:04.075Z,1020.19
2018-09-16T02:53:57.022Z,1020.17
2018-09-16T02:54:56.923Z,1020.16
2018-09-16T02:56:49.878Z,1020.16
2018-09-16T02:57:49.776Z,1020.18
2018-09-16T02:59:42.725Z,1020.16
2018-09-16T03:00:42.674Z,1020.16
2018-09-16T03:02:35.588Z,1020.12
2018-09-16T03:03:35.488Z,1020.07
2018-09-16T03:05:28.431Z,1020.05
2018-09-16T03:06:28.334Z,1020.05
2018-09-16T03:08:21.388Z,1020.01
2018-09-16T03:09:21.287Z,1020.03
2018-09-16T03:11:14.279Z,1020.00
2018-09-16T03:12:14.325Z,1019.97
2018-09-16T03:14:07.299Z,1019.94
2018-09-16T03:15:07.207Z,1019.90
2018-09-16T03:17:00.254Z,1019.95
2018-09-16T03:18:00.156Z,1019.94
2018-09-16T03:19:53.214Z,1019.98
2018-09-16T03:20:53.109Z,1019.98
2018-09-16T03:22:46.175Z,1019.98
2018-09-16T03:23:46.070Z,1019.97
2018-09-16T03:25:39.126Z,1019.99
2018-09-16T03:26:39.020Z,1020.01
2018-09-16T03:28:32.092Z,1019.96
2018-09-16T03:29:31.977Z,1019.99
2018-09-16T03:31:25.209Z,1020.01
2018-09-16T03:32:24.930Z,1020.00
2018-09-16T03:34:18.091Z,1019.95
2018-09-16T03:35:17.890Z,1019.96
2018-09-16T03:37:11.056Z,1020.02
2018-09-16T03:38:10.845Z,1019.99
2018-09-16T03:40:04.001Z,1020.00
2018-09-16T03:41:03.800Z,1019.94
2018-09-16T03:42:56.959Z,1020.01
2018-09-16T03:43:56.759Z,1019.99
2018-09-16T03:45:49.916Z,1019.99
2018-09-16T03:46:49.786Z,1020.00
2018-09-16T03:48:42.866Z,1019.96
2018-09-16T03:49:42.672Z,1019.96
2018-09-16T03:51:35.822Z,1019.93
2018-09-16T03:52:35.622Z,1019.92
2018-09-16T03:54:28.783Z,1019.93
2018-09-16T03:55:28.577Z,1019.96
2018-09-16T03:57:21.734Z,1019.92
2018-09-16T03:58:21.533Z,1019.94
2018-09-16T04:00:14.698Z,1019.91
2018-09-16T04:01:14.493Z,1019.90
2018-09-16T04:03:07.650Z,1019.91
2018-09-16T04:04:07.450Z,1019.87
2018-09-16T04:06:00.613Z,1019.90
2018-09-16T04:07:00.400Z,1019.91
2018-09-16T04:08:53.568Z,1019.95
2018-09-16T04:09:53.355Z,1019.95
2018-09-16T04:11:46.517Z,1019.94
2018-09-16T04:12:46.306Z,1019.98
2018-09-16T04:14:39.475Z,1019.98
2018-09-16T04:15:39.273Z,1020.00
2018-09-16T04:17:32.429Z,1019.95
2018-09-16T04:18:32.220Z,1019.96
2018-09-16T04:20:25.387Z,1020.00
2018-09-16T04:21:25.183Z,1019.98
2018-09-16T04:23:18.338Z,1019.95
2018-09-16T04:24:18.132Z,1019.95
2018-09-16T04:26:11.295Z,1019.93
2018-09-16T04:27:11.089Z,1019.90
2018-09-16T04:29:04.762Z,1019.87
2018-09-16T04:30:04.557Z,1019.88
2018-09-16T04:31:57.717Z,1019.91
2018-09-16T04:32:57.515Z,1019.91
2018-09-16T04:34:50.673Z,1019.97
2018-09-16T04:35:50.474Z,1019.99
2018-09-16T04:37:43.525Z,1019.93
2018-09-16T04:38:43.423Z,1019.92
2018-09-16T04:40:36.479Z,1019.89
2018-09-16T04:41:36.384Z,1019.88
2018-09-16T04:43:29.439Z,1019.88
2018-09-16T04:44:29.339Z,1019.88
2018-09-16T04:46:22.287Z,1019.86
2018-09-16T04:47:22.190Z,1019.87
2018-09-16T04:49:15.141Z,1019.81
2018-09-16T04:50:15.040Z,1019.82
2018-09-16T04:52:07.994Z,1019.87
2018-09-16T04:53:07.900Z,1019.83
2018-09-16T04:55:00.846Z,1019.81
2018-09-16T04:56:00.759Z,1019.83
2018-09-16T04:57:53.703Z,1019.84
2018-09-16T04:58:53.611Z,1019.86
2018-09-16T05:00:46.654Z,1019.81
2018-09-16T05:01:46.558Z,1019.86
2018-09-16T05:03:39.509Z,1019.91
2018-09-16T05:04:39.414Z,1019.87
2018-09-16T05:06:32.369Z,1019.88
2018-09-16T05:07:32.270Z,1019.86
2018-09-16T05:09:25.218Z,1019.86
2018-09-16T05:10:25.141Z,1019.88
2018-09-16T05:12:18.069Z,1019.91
2018-09-16T05:13:17.979Z,1019.94
2018-09-16T05:15:11.021Z,1019.95
2018-09-16T05:16:10.923Z,1019.93
2018-09-16T05:18:03.979Z,1019.88
2018-09-16T05:19:03.875Z,1019.98
2018-09-16T05:20:56.942Z,1020.00
2018-09-16T05:21:56.833Z,1020.04
2018-09-16T05:23:49.916Z,1020.03
2018-09-16T05:24:49.787Z,1020.03
2018-09-16T05:26:42.854Z,1020.08
2018-09-16T05:27:42.754Z,1020.04
2018-09-16T05:29:35.799Z,1020.01
2018-09-16T05:30:35.703Z,1020.00
2018-09-16T05:32:28.859Z,1020.05
2018-09-16T05:33:28.657Z,1020.08
2018-09-16T05:35:21.710Z,1020.08
2018-09-16T05:36:21.617Z,1020.04
2018-09-16T05:38:14.768Z,1020.04
2018-09-16T05:39:14.567Z,1020.12
2018-09-16T05:41:07.776Z,1020.12
2018-09-16T05:42:07.536Z,1020.09
2018-09-16T05:44:00.675Z,1020.10
2018-09-16T05:45:00.480Z,1020.11
2018-09-16T05:46:53.535Z,1020.08
2018-09-16T05:47:53.333Z,1020.14
2018-09-16T05:49:46.490Z,1020.09
2018-09-16T05:50:46.288Z,1020.11
2018-09-16T05:52:39.523Z,1020.13
2018-09-16T05:53:39.359Z,1020.15
2018-09-16T05:55:32.412Z,1020.14
2018-09-16T05:56:32.196Z,1020.12
2018-09-16T05:58:25.367Z,1020.09
2018-09-16T05:59:25.158Z,1020.12
2018-09-16T06:01:18.311Z,1020.10
2018-09-16T06:02:18.107Z,1020.11
2018-09-16T06:04:11.270Z,1020.13
2018-09-16T06:05:11.137Z,1020.10
2018-09-16T06:07:04.230Z,1020.12
2018-09-16T06:08:04.030Z,1020.09
2018-09-16T06:09:57.184Z,1020.08
2018-09-16T06:10:57.073Z,1020.09
2018-09-16T06:12:50.138Z,1020.07
2018-09-16T06:13:49.932Z,1020.08
2018-09-16T06:15:43.097Z,1020.07
2018-09-16T06:16:43.074Z,1020.06
2018-09-16T06:18:36.048Z,1020.12
2018-09-16T06:19:35.842Z,1020.16
2018-09-16T06:21:29.002Z,1020.09
2018-09-16T06:22:28.806Z,1020.12
2018-09-16T06:24:21.961Z,1020.12
2018-09-16T06:25:21.755Z,1020.09
2018-09-16T06:27:14.913Z,1020.13
2018-09-16T06:28:14.710Z,1020.17
2018-09-16T06:30:07.871Z,1020.13
2018-09-16T06:31:07.668Z,1020.11
2018-09-16T06:33:00.827Z,1020.08
2018-09-16T06:34:00.623Z,1020.03
2018-09-16T06:35:53.785Z,1020.09
2018-09-16T06:36:53.580Z,1020.05
2018-09-16T06:38:46.737Z,1020.16
2018-09-16T06:39:46.537Z,1020.13
2018-09-16T06:41:39.593Z,1020.18
2018-09-16T06:42:39.494Z,1020.23
2018-09-16T06:44:32.546Z,1020.18
2018-09-16T06:45:32.450Z,1020.20
2018-09-16T06:47:25.499Z,1020.15
2018-09-16T06:48:25.402Z,1020.12
2018-09-16T06:50:18.355Z,1020.05
2018-09-16T06:51:18.256Z,1020.07
2018-09-16T06:53:11.193Z,1020.01
2018-09-16T06:54:11.108Z,1020.01
2018-09-16T06:56:04.058Z,1020.04
2018-09-16T06:57:03.962Z,1020.06
2018-09-16T06:58:56.911Z,1020.06
2018-09-16T06:59:56.814Z,1020.04
2018-09-16T07:01:49.770Z,1020.04
2018-09-16T07:02:49.673Z,1020.02
2018-09-16T07:04:42.618Z,1019.99
2018-09-16T07:05:42.523Z,1019.99
2018-09-16T07:06:42.611Z,1020.00
2018-09-16T07:07:42.474Z,1020.04
2018-09-16T07:08:42.521Z,1020.04
2018-09-16T07:09:42.427Z,1020.01
2018-09-16T07:10:42.535Z,1019.99
2018-09-16T07:11:42.384Z,1019.95
2018-09-16T07:12:42.447Z,1020.00
2018-09-16T07:13:42.329Z,1020.00
2018-09-16T07:14:42.358Z,1019.99
2018-09-16T07:15:42.292Z,1020.00
2018-09-16T07:16:42.373Z,1019.98
2018-09-16T07:17:42.227Z,1019.94
2018-09-16T07:18:42.285Z,1020.01
2018-09-16T07:19:42.178Z,1019.97
2018-09-16T07:20:42.300Z,1019.99
2018-09-16T07:21:42.129Z,1019.95
2018-09-16T07:22:42.210Z,1019.99
2018-09-16T07:23:42.086Z,1019.99
2018-09-16T07:24:42.124Z,1020.01
2018-09-16T07:25:42.036Z,1020.03
2018-09-16T07:26:42.149Z,1020.01
2018-09-16T07:27:41.986Z,1020.01
2018-09-16T07:28:42.048Z,1019.98
2018-09-16T07:29:41.938Z,1020.03
2018-09-16T07:30:41.960Z,1020.01
2018-09-16T07:31:41.887Z,1020.01
2018-09-16T07:32:41.976Z,1020.04
2018-09-16T07:33:41.892Z,1020.04
2018-09-16T07:34:41.888Z,1020.02
2018-09-16T07:35:41.804Z,1020.00
2018-09-16T07:36:41.800Z,1020.04
2018-09-16T07:37:41.743Z,1020.05
2018-09-16T07:38:41.722Z,1020.04
2018-09-16T07:39:41.699Z,1020.08
2018-09-16T07:40:41.725Z,1020.05
2018-09-16T07:41:41.650Z,1020.13
2018-09-16T07:42:41.636Z,1020.12
2018-09-16T07:43:41.602Z,1020.12
2018-09-16T07:44:41.651Z,1020.11
2018-09-16T07:45:41.552Z,1020.11
2018-09-16T07:46:41.561Z,1020.11
2018-09-16T07:47:41.510Z,1020.13
2018-09-16T07:48:41.578Z,1020.17
2018-09-16T07:49:41.456Z,1020.15
2018-09-16T07:50:41.494Z,1020.15
2018-09-16T07:51:41.411Z,1020.15
2018-09-16T07:52:41.431Z,1020.19
2018-09-16T07:53:41.365Z,1020.21
2018-09-16T07:54:41.415Z,1020.20
2018-09-16T07:55:41.314Z,1020.20
2018-09-16T07:56:41.331Z,1020.25
2018-09-16T07:57:41.269Z,1020.22
2018-09-16T07:58:41.340Z,1020.23
2018-09-16T07:59:41.222Z,1020.24
2018-09-16T08:00:41.312Z,1020.28
2018-09-16T08:01:41.175Z,1020.24
2018-09-16T08:02:41.173Z,1020.25
2018-09-16T08:03:41.128Z,1020.25
2018-09-16T08:04:41.181Z,1020.26
2018-09-16T08:05:41.168Z,1020.21
2018-09-16T08:06:41.096Z,1020.21
2018-09-16T08:07:41.038Z,1020.18
2018-09-16T08:08:41.106Z,1020.20
2018-09-16T08:09:40.987Z,1020.18
2018-09-16T08:10:41.028Z,1020.10
2018-09-16T08:11:40.946Z,1020.11
2018-09-16T08:12:41.036Z,1020.13
2018-09-16T08:13:40.932Z,1020.14
2018-09-16T08:14:40.938Z,1020.17
2018-09-16T08:15:40.851Z,1020.15
2018-09-16T08:16:40.858Z,1020.16
2018-09-16T08:17:40.799Z,1020.16
2018-09-16T08:18:40.871Z,1020.13
2018-09-16T08:19:40.753Z,1020.16
2018-09-16T08:20:40.782Z,1020.15
2018-09-16T08:21:40.708Z,1020.17
2018-09-16T08:22:40.797Z,1020.16
2018-09-16T08:23:40.662Z,1020.13
2018-09-16T08:24:40.708Z,1020.17
2018-09-16T08:25:40.614Z,1020.21
2018-09-16T08:26:40.619Z,1020.18
2018-09-16T08:27:40.569Z,1020.20
2018-09-16T08:28:40.636Z,1020.20
2018-09-16T08:29:40.534Z,1020.17
2018-09-16T08:30:40.545Z,1020.18
2018-09-16T08:31:40.480Z,1020.11
2018-09-16T08:32:40.562Z,1020.12
2018-09-16T08:33:40.431Z,1020.08
2018-09-16T08:34:40.469Z,1020.08
2018-09-16T08:35:40.394Z,1020.04
2018-09-16T08:36:40.484Z,1020.09
2018-09-16T08:37:40.342Z,1020.12
2018-09-16T08:38:40.402Z,1020.14
2018-09-16T08:39:40.301Z,1020.15
2018-09-16T08:40:40.306Z,1020.17
2018-09-16T08:41:40.252Z,1020.17
2018-09-16T08:42:40.325Z,1020.18
2018-09-16T08:43:40.207Z,1020.20
2018-09-16T08:44:40.232Z,1020.16
2018-09-16T08:45:40.192Z,1020.15
2018-09-16T08:46:40.245Z,1020.13
2018-09-16T08:47:40.115Z,1020.17
2018-09-16T08:48:40.157Z,1020.13
2018-09-16T08:49:40.066Z,1020.04
2018-09-16T08:50:40.071Z,1020.07
2018-09-16T08:51:40.028Z,1020.05
2018-09-16T08:52:40.112Z,1020.09
2018-09-16T08:53:39.986Z,1020.07
2018-09-16T08:54:39.996Z,1020.09
2018-09-16T08:55:39.952Z,1020.06
2018-09-16T08:56:40.011Z,1020.06
2018-09-16T08:57:39.900Z,1020.06
2018-09-16T08:58:39.920Z,1020.04
2018-09-16T08:59:39.856Z,1020.04
2018-09-16T09:00:39.935Z,1020.07
2018-09-16T09:01:39.806Z,1020.07
2018-09-16T09:02:39.849Z,1020.06
2018-09-16T09:03:39.762Z,1020.04
2018-09-16T09:04:39.758Z,1020.06
2018-09-16T09:05:39.721Z,1020.07
2018-09-16T09:06:39.775Z,1020.09
2018-09-16T09:07:39.674Z,1020.12
2018-09-16T09:08:39.684Z,1020.11
2018-09-16T09:09:39.631Z,1020.15
2018-09-16T09:10:39.697Z,1020.13
2018-09-16T09:11:39.594Z,1020.06
2018-09-16T09:12:39.612Z,1020.11
2018-09-16T09:13:39.546Z,1020.15
2018-09-16T09:14:39.627Z,1020.15
2018-09-16T09:15:39.508Z,1020.08
2018-09-16T09:16:39.536Z,1020.16
2018-09-16T09:17:39.460Z,1020.26
2018-09-16T09:18:39.551Z,1020.24
2018-09-16T09:19:39.418Z,1020.27
2018-09-16T09:20:39.462Z,1020.20
2018-09-16T09:21:39.380Z,1020.26
2018-09-16T09:22:39.375Z,1020.17
2018-09-16T09:23:39.335Z,1020.21
2018-09-16T09:24:39.392Z,1020.16
2018-09-16T09:25:39.293Z,1020.29
2018-09-16T09:26:39.304Z,1020.26
2018-09-16T09:27:39.253Z,1020.22
2018-09-16T09:28:39.317Z,1020.25
2018-09-16T09:29:39.210Z,1020.20
2018-09-16T09:30:39.229Z,1020.21
2018-09-16T09:31:39.175Z,1020.08
2018-09-16T09:32:39.249Z,1020.08
2018-09-16T09:33:39.136Z,1020.06
2018-09-16T09:34:39.155Z,1020.06
2018-09-16T09:35:39.132Z,1020.04
2018-09-16T09:36:39.168Z,1020.05
2018-09-16T09:37:39.064Z,1020.05
2018-09-16T09:38:39.083Z,1020.02
2018-09-16T09:39:39.027Z,1020.05
2018-09-16T09:40:39.092Z,1020.02
2018-09-16T09:41:38.982Z,1019.99
2018-09-16T09:42:39.060Z,1019.98
2018-09-16T09:43:38.940Z,1019.96
2018-09-16T09:44:39.038Z,1020.01
2018-09-16T09:45:38.903Z,1020.00
2018-09-16T09:46:38.934Z,1020.00
2018-09-16T09:47:38.876Z,1019.99
2018-09-16T09:48:38.944Z,1019.99
2018-09-16T09:49:38.851Z,1019.93
2018-09-16T09:50:38.858Z,1019.97
2018-09-16T09:51:38.795Z,1019.96
2018-09-16T09:52:38.869Z,1019.99
2018-09-16T09:53:38.761Z,1020.04
2018-09-16T09:54:38.787Z,1020.01
2018-09-16T09:55:38.746Z,1020.04
2018-09-16T09:56:38.795Z,1020.00
2018-09-16T09:57:38.692Z,1019.94
2018-09-16T09:58:38.713Z,1019.97
2018-09-16T09:59:38.662Z,1019.94
2018-09-16T10:00:38.722Z,1019.90
2018-09-16T10:01:38.621Z,1019.94
2018-09-16T10:02:38.641Z,1020.01
2018-09-16T10:03:38.589Z,1020.09
2018-09-16T10:04:38.649Z,1020.02
2018-09-16T10:05:38.558Z,1019.98
2018-09-16T10:06:38.561Z,1019.95
2018-09-16T10:07:38.519Z,1019.97
2018-09-16T10:08:38.573Z,1019.96
2018-09-16T10:09:38.488Z,1019.98
2018-09-16T10:10:38.487Z,1019.95
2018-09-16T10:11:38.457Z,1019.99
2018-09-16T10:12:38.504Z,1019.96
2018-09-16T10:13:38.421Z,1019.93
2018-09-16T10:14:38.516Z,1019.95
2018-09-16T10:15:38.387Z,1019.92
2018-09-16T10:16:38.414Z,1019.94
2018-09-16T10:17:38.367Z,1019.92
2018-09-16T10:18:38.440Z,1019.87
2018-09-16T10:19:38.327Z,1019.84
2018-09-16T10:20:38.352Z,1019.82
2018-09-16T10:21:38.289Z,1019.83
2018-09-16T10:22:38.392Z,1019.81
2018-09-16T10:23:38.259Z,1019.75
2018-09-16T10:24:38.282Z,1019.71
2018-09-16T10:25:38.225Z,1019.72
2018-09-16T10:26:38.292Z,1019.75
2018-09-16T10:27:38.198Z,1019.72
2018-09-16T10:28:38.206Z,1019.74
2018-09-16T10:29:38.169Z,1019.71
2018-09-16T10:30:38.219Z,1019.71
2018-09-16T10:31:38.131Z,1019.68
2018-09-16T10:32:38.130Z,1019.67
2018-09-16T10:33:38.097Z,1019.63
2018-09-16T10:34:38.147Z,1019.60
2018-09-16T10:35:38.066Z,1019.63
2018-09-16T10:36:38.176Z,1019.64
2018-09-16T10:37:38.039Z,1019.55
2018-09-16T10:38:38.165Z,1019.58
2018-09-16T10:39:38.006Z,1019.50
2018-09-16T10:40:38.083Z,1019.52
2018-09-16T10:41:37.975Z,1019.47
2018-09-16T10:42:37.997Z,1019.48
2018-09-16T10:43:37.949Z,1019.44
2018-09-16T10:44:38.047Z,1019.50
2018-09-16T10:45:37.953Z,1019.57
2018-09-16T10:46:37.927Z,1019.50
2018-09-16T10:47:37.888Z,1019.51
2018-09-16T10:48:37.936Z,1019.49
2018-09-16T10:49:37.894Z,1019.48
2018-09-16T10:50:37.851Z,1019.51
2018-09-16T10:51:37.825Z,1019.42
2018-09-16T10:52:37.865Z,1019.42
2018-09-16T10:53:37.798Z,1019.36
2018-09-16T10:54:37.880Z,1019.36
2018-09-16T10:55:37.764Z,1019.40
2018-09-16T10:56:37.791Z,1019.38
2018-09-16T10:57:37.728Z,1019.38
2018-09-16T10:58:37.809Z,1019.42
2018-09-16T10:59:37.694Z,1019.38
2018-09-16T11:00:37.712Z,1019.37
2018-09-16T11:01:37.675Z,1019.38
2018-09-16T11:02:37.731Z,1019.33
2018-09-16T11:03:37.641Z,1019.34
2018-09-16T11:04:37.640Z,1019.20
2018-09-16T11:05:37.605Z,1019.24
2018-09-16T11:06:37.592Z,1019.29
2018-09-16T11:07:37.662Z,1019.30
2018-09-16T11:08:37.558Z,1019.24
2018-09-16T11:09:37.577Z,1019.23
2018-09-16T11:10:37.544Z,1019.18
2018-09-16T11:11:37.519Z,1019.21
2018-09-16T11:12:37.503Z,1019.17
2018-09-16T11:13:37.495Z,1019.13
2018-09-16T11:14:37.474Z,1019.19
2018-09-16T11:15:37.514Z,1019.22
2018-09-16T11:16:37.453Z,1019.15
2018-09-16T11:17:37.528Z,1019.10
2018-09-16T11:18:37.423Z,1019.15
2018-09-16T11:19:37.439Z,1019.13
2018-09-16T11:20:37.379Z,1019.16
2018-09-16T11:21:37.453Z,1019.10
2018-09-16T11:22:37.347Z,1019.10
2018-09-16T11:23:37.334Z,1019.07
2018-09-16T11:24:37.373Z,1019.06
2018-09-16T11:25:37.303Z,1019.06
2018-09-16T11:26:37.386Z,1019.06
2018-09-16T11:27:37.282Z,1019.00
2018-09-16T11:28:37.259Z,1019.01
2018-09-16T11:29:37.249Z,1018.99
2018-09-16T11:30:37.317Z,1018.96
2018-09-16T11:31:37.218Z,1018.98
2018-09-16T11:32:37.225Z,1018.97
2018-09-16T11:33:37.179Z,1018.94
2018-09-16T11:34:37.241Z,1018.95
2018-09-16T11:35:37.204Z,1018.98
2018-09-16T11:36:37.254Z,1019.00
2018-09-16T11:37:37.135Z,1019.00
2018-09-16T11:38:37.166Z,1018.99
2018-09-16T11:39:37.110Z,1018.98
2018-09-16T11:40:37.181Z,1018.98
2018-09-16T11:41:37.081Z,1019.04
2018-09-16T11:42:37.091Z,1019.02
2018-09-16T11:43:37.054Z,1019.00
2018-09-16T11:44:37.108Z,1018.99
2018-09-16T11:45:37.017Z,1019.02
2018-09-16T11:46:37.123Z,1018.95
2018-09-16T11:47:36.993Z,1018.92
2018-09-16T11:48:37.035Z,1018.95
2018-09-16T11:49:36.961Z,1018.88
2018-09-16T11:50:37.048Z,1018.87
2018-09-16T11:51:36.957Z,1018.89
2018-09-16T11:52:36.961Z,1018.84
2018-09-16T11:53:36.903Z,1018.83
2018-09-16T11:54:36.973Z,1018.80
2018-09-16T11:55:36.881Z,1018.77
2018-09-16T11:56:36.884Z,1018.75
2018-09-16T11:57:36.853Z,1018.73
2018-09-16T11:58:36.901Z,1018.67
2018-09-16T11:59:36.820Z,1018.70
2018-09-16T12:00:36.912Z,1018.67
2018-09-16T12:01:36.790Z,1018.69
2018-09-16T12:02:36.822Z,1018.69
2018-09-16T12:03:36.764Z,1018.67
2018-09-16T12:04:36.838Z,1018.67
2018-09-16T12:05:36.737Z,1018.64
2018-09-16T12:06:36.751Z,1018.61
2018-09-16T12:07:36.718Z,1018.58
2018-09-16T12:08:36.694Z,1018.59
2018-09-16T12:09:36.774Z,1018.61
2018-09-16T12:10:36.672Z,1018.57
2018-09-16T12:11:36.839Z,1018.57
2018-09-16T12:12:36.641Z,1018.57
2018-09-16T12:13:36.633Z,1018.55
2018-09-16T12:14:36.616Z,1018.52
2018-09-16T12:15:36.608Z,1018.54
2018-09-16T12:16:36.589Z,1018.54
2018-09-16T12:17:36.621Z,1018.52
2018-09-16T12:18:36.558Z,1018.49
2018-09-16T12:19:36.637Z,1018.45
2018-09-16T12:20:36.533Z,1018.49
2018-09-16T12:21:36.550Z,1018.46
2018-09-16T12:22:36.501Z,1018.45
2018-09-16T12:23:36.563Z,1018.45
2018-09-16T12:24:36.481Z,1018.43
2018-09-16T12:25:36.577Z,1018.39
2018-09-16T12:26:36.452Z,1018.42
2018-09-16T12:27:36.491Z,1018.38
2018-09-16T12:28:36.420Z,1018.32
2018-09-16T12:29:36.502Z,1018.29
2018-09-16T12:30:36.393Z,1018.32
2018-09-16T12:31:36.429Z,1018.34
2018-09-16T12:32:36.375Z,1018.32
2018-09-16T12:33:36.428Z,1018.32
2018-09-16T12:34:36.366Z,1018.35
2018-09-16T12:35:36.348Z,1018.38
2018-09-16T12:36:36.313Z,1018.37
2018-09-16T12:37:36.354Z,1018.37
2018-09-16T12:38:36.289Z,1018.35
2018-09-16T12:39:36.368Z,1018.36
2018-09-16T12:40:36.259Z,1018.32
2018-09-16T12:41:36.280Z,1018.30
2018-09-16T12:42:36.231Z,1018.31
2018-09-16T12:43:36.300Z,1018.26
2018-09-16T12:44:36.208Z,1018.22
2018-09-16T12:45:36.210Z,1018.22
2018-09-16T12:46:36.177Z,1018.20
2018-09-16T12:47:36.226Z,1018.19
2018-09-16T12:48:36.152Z,1018.23
2018-09-16T12:49:36.241Z,1018.10
2018-09-16T12:50:36.124Z,1018.14
2018-09-16T12:51:36.152Z,1018.13
2018-09-16T12:52:36.098Z,1018.10
2018-09-16T12:53:36.164Z,1018.14
2018-09-16T12:54:36.072Z,1018.14
2018-09-16T12:55:36.187Z,1018.13
2018-09-16T12:56:36.045Z,1018.07
2018-09-16T12:57:36.092Z,1018.08
2018-09-16T12:58:36.018Z,1017.99
2018-09-16T12:59:36.107Z,1017.98
2018-09-16T13:00:36.028Z,1017.94
2018-09-16T13:01:36.022Z,1017.91
2018-09-16T13:02:35.971Z,1017.93
2018-09-16T13:03:36.030Z,1017.90
2018-09-16T13:04:35.947Z,1017.92
2018-09-16T13:05:36.051Z,1017.88
2018-09-16T13:06:35.922Z,1017.91
2018-09-16T13:07:35.961Z,1017.91
2018-09-16T13:08:35.892Z,1017.90
2018-09-16T13:09:35.886Z,1017.86
2018-09-16T13:10:35.865Z,1017.85
2018-09-16T13:11:35.884Z,1017.85
2018-09-16T13:12:35.836Z,1017.85
2018-09-16T13:13:35.931Z,1017.85
2018-09-16T13:14:35.812Z,1017.85
2018-09-16T13:15:35.912Z,1017.84
2018-09-16T13:16:35.787Z,1017.88
2018-09-16T13:17:35.825Z,1017.86
2018-09-16T13:18:35.772Z,1017.85
2018-09-16T13:19:35.836Z,1017.83
2018-09-16T13:20:35.741Z,1017.84
2018-09-16T13:21:35.720Z,1017.80
2018-09-16T13:22:35.706Z,1017.76
2018-09-16T13:23:35.759Z,1017.78
2018-09-16T13:24:35.687Z,1017.77
2018-09-16T13:25:35.778Z,1017.79
2018-09-16T13:26:35.652Z,1017.78
2018-09-16T13:27:35.690Z,1017.79
2018-09-16T13:28:35.657Z,1017.73
2018-09-16T13:29:35.704Z,1017.74
2018-09-16T13:30:35.603Z,1017.72
2018-09-16T13:31:35.615Z,1017.68
2018-09-16T13:32:35.572Z,1017.67
2018-09-16T13:33:35.627Z,1017.69
2018-09-16T13:34:35.548Z,1017.68
2018-09-16T13:35:35.644Z,1017.62
2018-09-16T13:36:35.517Z,1017.57
2018-09-16T13:37:35.556Z,1017.58
2018-09-16T13:38:35.524Z,1017.55
2018-09-16T13:39:35.569Z,1017.54
2018-09-16T13:40:35.467Z,1017.55
2018-09-16T13:41:36.504Z,1017.54
2018-09-16T13:42:35.440Z,1017.53
2018-09-16T13:43:35.492Z,1017.53
2018-09-16T13:44:35.414Z,1017.57
2018-09-16T13:45:35.508Z,1017.56
2018-09-16T13:46:35.393Z,1017.60
2018-09-16T13:47:35.425Z,1017.58
2018-09-16T13:48:35.430Z,1017.58
2018-09-16T13:49:35.434Z,1017.52
2018-09-16T13:50:35.340Z,1017.51
2018-09-16T13:51:35.345Z,1017.49
2018-09-16T13:52:35.314Z,1017.45
2018-09-16T13:53:35.365Z,1017.43
2018-09-16T13:54:35.286Z,1017.42
2018-09-16T13:55:35.373Z,1017.42
2018-09-16T13:56:35.251Z,1017.42
2018-09-16T13:57:35.285Z,1017.41
2018-09-16T13:58:35.232Z,1017.43
2018-09-16T13:59:35.355Z,1017.40
2018-09-16T14:00:35.200Z,1017.34
2018-09-16T14:01:35.211Z,1017.33
2018-09-16T14:02:35.235Z,1017.34
2018-09-16T14:03:35.326Z,1017.31
2018-09-16T14:04:35.146Z,1017.28
2018-09-16T14:05:35.242Z,1017.29
2018-09-16T14:06:35.119Z,1017.27
2018-09-16T14:07:35.152Z,1017.24
2018-09-16T14:08:35.093Z,1017.22
2018-09-16T14:09:35.135Z,1017.21
2018-09-16T14:10:35.074Z,1017.23
2018-09-16T14:11:35.088Z,1017.18
2018-09-16T14:12:35.039Z,1017.10
2018-09-16T14:13:35.093Z,1017.09
2018-09-16T14:14:35.104Z,1017.13
2018-09-16T14:15:35.001Z,1017.13